createdAt,value
2018-12-05T00:00:16.261Z,22.6
2018-12-05T00:01:06.043Z,22.7
2018-12-05T00:01:55.873Z,22.7
2018-12-05T00:02:46.143Z,22.7
2018-12-05T00:03:36.208Z,22.8
2018-12-05T00:04:25.993Z,22.8
2018-12-05T00:05:16.344Z,22.8
2018-12-05T00:06:06.108Z,22.8
2018-12-05T00:06:56.155Z,22.8
2018-12-05T00:25:08.449Z,22.9
2018-12-05T00:25:57.987Z,22.9
2018-12-05T00:26:48.316Z,22.9
2018-12-05T00:27:38.374Z,22.9
2018-12-05T00:28:27.863Z,22.8
2018-12-05T00:29:17.381Z,22.8
2018-12-05T00:30:08.531Z,22.8
2018-12-05T00:30:58.051Z,22.8
2018-12-05T00:31:47.578Z,22.8
2018-12-05T00:32:38.184Z,22.8
2018-12-05T00:33:29.034Z,22.8
2018-12-05T00:34:18.758Z,22.8
2018-12-05T00:35:08.051Z,22.8
2018-12-05T00:35:58.584Z,22.8
2018-12-05T00:36:48.946Z,22.8
2018-12-05T00:37:38.751Z,22.8
2018-12-05T00:38:29.343Z,22.8
2018-12-05T00:39:19.368Z,22.8
2018-12-05T00:40:10.338Z,22.9
2018-12-05T00:40:58.650Z,22.9
2018-12-05T00:41:49.868Z,22.9
2018-12-05T00:42:39.149Z,22.9
2018-12-05T00:43:29.953Z,22.9
2018-12-05T00:44:19.673Z,22.9
2018-12-05T00:45:10.015Z,22.9
2018-12-05T00:45:59.268Z,22.9
2018-12-05T00:46:49.867Z,22.9
2018-12-05T00:47:38.620Z,22.9
2018-12-05T00:48:30.510Z,22.9
2018-12-05T00:49:19.254Z,22.9
2018-12-05T00:50:10.404Z,22.9
2018-12-05T00:50:59.919Z,22.9
2018-12-05T00:51:48.356Z,22.9
2018-12-05T00:52:38.984Z,22.9
2018-12-05T00:53:30.386Z,22.9
2018-12-05T00:54:19.905Z,22.9
2018-12-05T00:55:10.267Z,22.9
2018-12-05T00:56:00.027Z,22.9
2018-12-05T00:56:50.102Z,22.9
2018-12-05T00:57:39.589Z,22.9
2018-12-05T00:58:29.966Z,22.9
2018-12-05T00:59:20.471Z,22.9
2018-12-05T01:00:10.893Z,22.9
2018-12-05T01:01:00.382Z,22.9
2018-12-05T01:01:50.426Z,22.9
2018-12-05T01:02:40.514Z,22.9
2018-12-05T01:03:30.511Z,22.9
2018-12-05T01:04:21.162Z,22.9
2018-12-05T01:05:12.379Z,22.8
2018-12-05T01:06:00.914Z,22.8
2018-12-05T01:06:50.969Z,22.8
2018-12-05T01:07:40.814Z,22.8
2018-12-05T01:08:31.378Z,22.8
2018-12-05T01:09:21.144Z,22.8
2018-12-05T01:10:10.420Z,22.8
2018-12-05T01:11:01.618Z,22.8
2018-12-05T01:11:51.973Z,22.8
2018-12-05T01:12:41.389Z,22.8
2018-12-05T01:13:31.696Z,22.8
2018-12-05T01:14:21.760Z,22.9
2018-12-05T01:15:12.510Z,22.9
2018-12-05T01:16:01.291Z,22.9
2018-12-05T01:16:51.971Z,22.9
2018-12-05T01:17:41.220Z,22.9
2018-12-05T01:18:32.078Z,22.9
2018-12-05T01:19:22.619Z,22.9
2018-12-05T01:20:10.772Z,22.9
2018-12-05T01:21:02.265Z,22.9
2018-12-05T01:21:52.287Z,22.9
2018-12-05T01:22:42.604Z,22.9
2018-12-05T01:23:32.695Z,22.9
2018-12-05T01:24:22.012Z,22.9
2018-12-05T01:25:11.685Z,22.9
2018-12-05T01:26:01.445Z,22.9
2018-12-05T01:26:51.572Z,22.9
2018-12-05T01:27:42.140Z,22.9
2018-12-05T01:28:31.919Z,22.9
2018-12-05T01:29:22.479Z,22.9
2018-12-05T01:30:13.105Z,22.9
2018-12-05T01:31:02.317Z,22.9
2018-12-05T01:31:52.122Z,22.9
2018-12-05T01:32:42.514Z,22.9
2018-12-05T01:33:32.557Z,22.9
2018-12-05T01:34:23.465Z,22.9
2018-12-05T01:35:13.454Z,22.9
2018-12-05T01:36:02.929Z,22.8
2018-12-05T01:36:52.272Z,22.8
2018-12-05T01:37:42.522Z,22.8
2018-12-05T01:38:32.867Z,22.8
2018-12-05T01:39:23.484Z,22.8
2018-12-05T01:40:13.523Z,22.8
2018-12-05T01:41:03.382Z,22.8
2018-12-05T01:41:52.519Z,22.8
2018-12-05T01:42:43.161Z,22.8
2018-12-05T01:43:33.244Z,22.8
2018-12-05T01:44:23.003Z,22.8
2018-12-05T01:45:14.134Z,22.8
2018-12-05T01:46:04.180Z,22.8
2018-12-05T01:46:53.674Z,22.8
2018-12-05T01:47:43.857Z,22.8
2018-12-05T01:48:33.844Z,22.8
2018-12-05T01:49:23.903Z,22.8
2018-12-05T01:50:13.379Z,22.8
2018-12-05T01:51:04.264Z,22.8
2018-12-05T01:51:53.622Z,22.8
2018-12-05T01:52:44.921Z,22.9
2018-12-05T01:53:34.733Z,22.9
2018-12-05T01:54:23.708Z,22.9
2018-12-05T01:55:13.183Z,22.9
2018-12-05T01:56:04.578Z,22.9
2018-12-05T01:56:54.910Z,22.9
2018-12-05T01:57:44.851Z,22.9
2018-12-05T01:58:34.325Z,22.9
2018-12-05T01:59:24.295Z,22.9
2018-12-05T02:00:14.707Z,22.9
2018-12-05T02:01:04.454Z,22.9
2018-12-05T02:01:55.338Z,22.9
2018-12-05T02:02:45.048Z,22.9
2018-12-05T02:03:35.413Z,22.9
2018-12-05T02:04:24.253Z,22.9
2018-12-05T02:05:14.410Z,22.9
2018-12-05T02:06:04.190Z,22.9
2018-12-05T02:06:55.905Z,22.9
2018-12-05T02:07:45.695Z,22.9
2018-12-05T02:08:34.730Z,22.8
2018-12-05T02:09:25.264Z,22.8
2018-12-05T02:10:15.316Z,22.8
2018-12-05T02:11:05.885Z,22.8
2018-12-05T02:11:55.478Z,22.8
2018-12-05T02:12:45.267Z,22.8
2018-12-05T02:13:35.543Z,22.8
2018-12-05T02:14:25.437Z,22.8
2018-12-05T02:15:15.660Z,22.8
2018-12-05T02:16:05.586Z,22.8
2018-12-05T02:16:56.340Z,22.8
2018-12-05T02:17:45.561Z,22.8
2018-12-05T02:18:35.879Z,22.8
2018-12-05T02:19:26.215Z,22.8
2018-12-05T02:20:16.334Z,22.8
2018-12-05T02:21:07.014Z,22.8
2018-12-05T02:21:56.404Z,22.8
2018-12-05T02:22:45.012Z,22.8
2018-12-05T02:23:36.494Z,22.8
2018-12-05T02:24:25.199Z,22.8
2018-12-05T02:25:16.875Z,22.8
2018-12-05T02:26:06.486Z,22.8
2018-12-05T02:26:56.714Z,22.8
2018-12-05T02:27:46.364Z,22.8
2018-12-05T02:28:36.574Z,22.8
2018-12-05T02:29:27.191Z,22.8
2018-12-05T02:30:17.129Z,22.8
2018-12-05T02:31:07.064Z,22.8
2018-12-05T02:31:57.076Z,22.8
2018-12-05T02:32:47.481Z,22.8
2018-12-05T02:33:37.502Z,22.8
2018-12-05T02:34:27.071Z,22.8
2018-12-05T02:35:16.489Z,22.9
2018-12-05T02:36:07.403Z,22.9
2018-12-05T02:36:57.223Z,22.9
2018-12-05T02:37:46.936Z,22.9
2018-12-05T02:38:37.029Z,22.9
2018-12-05T02:39:27.441Z,22.9
2018-12-05T02:40:17.661Z,22.9
2018-12-05T02:41:07.431Z,22.9
2018-12-05T02:41:57.605Z,22.9
2018-12-05T02:42:46.774Z,22.9
2018-12-05T02:43:37.620Z,22.9
2018-12-05T02:44:28.364Z,22.9
2018-12-05T02:45:17.811Z,22.9
2018-12-05T02:46:08.365Z,22.9
2018-12-05T02:46:57.533Z,22.9
2018-12-05T02:47:48.548Z,22.9
2018-12-05T02:48:37.390Z,22.9
2018-12-05T02:49:27.193Z,22.9
2018-12-05T02:50:18.358Z,22.9
2018-12-05T02:51:07.588Z,22.9
2018-12-05T02:51:57.678Z,22.8
2018-12-05T02:52:48.227Z,22.8
2018-12-05T02:53:38.392Z,22.8
2018-12-05T02:54:28.509Z,22.8
2018-12-05T02:55:18.733Z,22.8
2018-12-05T02:56:08.474Z,22.8
2018-12-05T02:56:58.665Z,22.8
2018-12-05T02:57:48.528Z,22.8
2018-12-05T02:58:39.148Z,22.8
2018-12-05T02:59:28.816Z,22.8
2018-12-05T03:00:20.228Z,22.8
2018-12-05T03:01:08.403Z,22.8
2018-12-05T03:01:58.884Z,22.8
2018-12-05T03:02:48.696Z,22.8
2018-12-05T03:03:38.162Z,22.8
2018-12-05T03:04:29.074Z,22.8
2018-12-05T03:05:18.973Z,22.8
2018-12-05T03:06:08.992Z,22.8
2018-12-05T03:06:58.943Z,22.8
2018-12-05T03:07:48.754Z,22.8
2018-12-05T03:08:39.348Z,22.8
2018-12-05T03:09:30.250Z,22.8
2018-12-05T03:10:19.488Z,22.8
2018-12-05T03:11:09.521Z,22.8
2018-12-05T03:11:59.839Z,22.8
2018-12-05T03:12:49.901Z,22.8
2018-12-05T03:13:39.708Z,22.8
2018-12-05T03:14:29.448Z,22.8
2018-12-05T03:15:19.516Z,22.8
2018-12-05T03:16:09.055Z,22.8
2018-12-05T03:16:59.903Z,22.8
2018-12-05T03:17:50.498Z,22.8
2018-12-05T03:18:40.055Z,22.8
2018-12-05T03:19:30.138Z,22.8
2018-12-05T03:20:20.143Z,22.8
2018-12-05T03:21:10.518Z,22.8
2018-12-05T03:22:00.822Z,22.8
2018-12-05T03:22:50.873Z,22.9
2018-12-05T03:23:40.668Z,22.8
2018-12-05T03:24:30.748Z,22.8
2018-12-05T03:25:20.781Z,22.8
2018-12-05T03:26:10.871Z,22.8
2018-12-05T03:27:00.347Z,22.8
2018-12-05T03:27:50.959Z,22.8
2018-12-05T03:28:40.982Z,22.8
2018-12-05T03:29:31.280Z,22.8
2018-12-05T03:30:21.763Z,22.8
2018-12-05T03:31:11.335Z,22.7
2018-12-05T03:32:01.140Z,22.7
2018-12-05T03:32:51.732Z,22.7
2018-12-05T03:33:41.558Z,22.7
2018-12-05T03:34:31.389Z,22.7
2018-12-05T03:35:22.897Z,22.7
2018-12-05T03:36:10.659Z,22.7
2018-12-05T03:37:01.636Z,22.8
2018-12-05T03:37:51.062Z,22.8
2018-12-05T03:38:41.492Z,22.8
2018-12-05T03:39:31.729Z,22.8
2018-12-05T03:40:21.267Z,22.8
2018-12-05T03:41:11.408Z,22.8
2018-12-05T03:42:01.686Z,22.8
2018-12-05T03:42:51.946Z,22.8
2018-12-05T03:43:42.569Z,22.8
2018-12-05T03:44:32.103Z,22.8
2018-12-05T03:45:21.568Z,22.8
2018-12-05T03:46:11.929Z,22.8
2018-12-05T03:47:02.047Z,22.8
2018-12-05T03:47:52.306Z,22.8
2018-12-05T03:48:41.293Z,22.8
2018-12-05T03:49:31.898Z,22.8
2018-12-05T03:50:21.428Z,22.8
2018-12-05T03:51:12.574Z,22.8
2018-12-05T03:52:02.613Z,22.8
2018-12-05T03:52:52.643Z,22.8
2018-12-05T03:53:42.733Z,22.8
2018-12-05T03:54:32.538Z,22.8
2018-12-05T03:55:24.633Z,22.8
2018-12-05T03:56:12.948Z,22.8
2018-12-05T03:57:02.992Z,22.8
2018-12-05T03:57:52.179Z,22.8
2018-12-05T03:58:42.552Z,22.8
2018-12-05T03:59:32.548Z,22.8
2018-12-05T04:00:22.641Z,22.8
2018-12-05T04:01:12.935Z,22.7
2018-12-05T04:02:03.373Z,22.8
2018-12-05T04:02:53.615Z,22.7
2018-12-05T04:03:42.552Z,22.7
2018-12-05T04:04:33.705Z,22.7
2018-12-05T04:05:23.267Z,22.7
2018-12-05T04:06:13.305Z,22.7
2018-12-05T04:07:04.872Z,22.7
2018-12-05T04:07:53.413Z,22.7
2018-12-05T04:08:43.195Z,22.7
2018-12-05T04:09:35.121Z,22.7
2018-12-05T04:10:23.325Z,22.7
2018-12-05T04:11:14.858Z,22.7
2018-12-05T04:12:03.920Z,22.7
2018-12-05T04:12:54.962Z,22.7
2018-12-05T04:13:42.980Z,22.7
2018-12-05T04:14:33.772Z,22.7
2018-12-05T04:15:23.682Z,22.8
2018-12-05T04:16:14.296Z,22.8
2018-12-05T04:17:04.458Z,22.8
2018-12-05T04:17:54.274Z,22.8
2018-12-05T04:18:44.774Z,22.8
2018-12-05T04:19:34.497Z,22.7
2018-12-05T04:20:24.242Z,22.6
2018-12-05T04:21:13.717Z,22.5
2018-12-05T04:22:04.901Z,22.4
2018-12-05T04:22:54.405Z,22.4
2018-12-05T04:23:44.880Z,22.4
2018-12-05T04:24:34.601Z,22.3
2018-12-05T04:25:24.509Z,22.3
2018-12-05T04:26:14.676Z,22.2
2018-12-05T04:27:04.464Z,22.1
2018-12-05T04:27:55.026Z,22.1
2018-12-05T04:28:44.560Z,22.1
2018-12-05T04:29:34.884Z,22.1
2018-12-05T04:30:25.736Z,22.1
2018-12-05T04:31:15.549Z,22
2018-12-05T04:32:05.084Z,22
2018-12-05T04:32:55.432Z,21.9
2018-12-05T04:33:45.174Z,21.9
2018-12-05T04:34:34.688Z,21.9
2018-12-05T04:35:25.004Z,21.9
2018-12-05T04:36:15.920Z,21.9
2018-12-05T04:37:05.767Z,21.9
2018-12-05T04:54:20.361Z,21.7
2018-12-05T04:55:08.308Z,21.7
2018-12-05T04:55:58.862Z,21.7
2018-12-05T04:56:48.705Z,21.7
2018-12-05T04:57:39.267Z,21.7
2018-12-05T04:58:29.625Z,21.7
2018-12-05T04:59:22.222Z,21.7
2018-12-05T05:00:08.925Z,21.6
2018-12-05T05:00:58.939Z,21.7
2018-12-05T05:01:49.279Z,21.7
2018-12-05T05:02:39.100Z,21.8
2018-12-05T05:03:29.103Z,21.8
2018-12-05T05:04:20.027Z,21.8
2018-12-05T05:05:09.224Z,21.8
2018-12-05T05:05:59.112Z,21.8
2018-12-05T05:06:49.412Z,21.8
2018-12-05T05:07:39.712Z,21.7
2018-12-05T05:08:29.722Z,21.6
2018-12-05T05:09:20.055Z,21.6
2018-12-05T05:10:09.009Z,21.6
2018-12-05T05:11:00.149Z,21.4
2018-12-05T05:11:49.726Z,21.4
2018-12-05T05:12:39.974Z,21.4
2018-12-05T05:13:30.166Z,21.3
2018-12-05T05:14:19.012Z,21.3
2018-12-05T05:15:09.896Z,21.3
2018-12-05T05:16:00.219Z,21.2
2018-12-05T05:16:50.041Z,21.2
2018-12-05T05:17:39.784Z,21.2
2018-12-05T05:19:21.186Z,21.2
2018-12-05T05:20:12.764Z,21.2
2018-12-05T05:21:00.309Z,21.3
2018-12-05T05:21:50.631Z,21.3
2018-12-05T05:22:41.092Z,21.4
2018-12-05T05:23:30.768Z,21.4
2018-12-05T05:24:20.785Z,21.4
2018-12-05T05:25:11.448Z,21.4
2018-12-05T05:26:00.935Z,21.4
2018-12-05T05:26:50.948Z,21.4
2018-12-05T05:27:48.603Z,21.4
2018-12-05T05:28:31.053Z,21.4
2018-12-05T05:29:21.387Z,21.4
2018-12-05T05:30:11.518Z,21.4
2018-12-05T05:31:00.933Z,21.3
2018-12-05T05:31:51.906Z,21.3
2018-12-05T05:32:40.245Z,21.4
2018-12-05T05:33:31.256Z,21.4
2018-12-05T05:34:21.191Z,21.4
2018-12-05T05:35:11.778Z,21.4
2018-12-05T05:36:01.308Z,21.5
2018-12-05T05:36:51.380Z,21.4
2018-12-05T05:37:41.710Z,21.4
2018-12-05T05:38:31.261Z,21.4
2018-12-05T05:39:21.815Z,21.4
2018-12-05T05:40:12.825Z,21.4
2018-12-05T05:41:02.729Z,21.4
2018-12-05T05:41:51.767Z,21.4
2018-12-05T05:42:41.744Z,21.4
2018-12-05T05:43:32.132Z,21.4
2018-12-05T05:44:22.155Z,21.5
2018-12-05T05:45:12.982Z,21.5
2018-12-05T05:46:02.787Z,21.6
2018-12-05T05:46:52.622Z,21.6
2018-12-05T05:47:42.917Z,21.6
2018-12-05T05:48:32.128Z,21.6
2018-12-05T05:49:22.185Z,21.6
2018-12-05T05:50:12.827Z,21.6
2018-12-05T05:51:02.055Z,21.5
2018-12-05T05:51:52.637Z,21.6
2018-12-05T05:52:42.404Z,21.6
2018-12-05T05:53:32.477Z,21.6
2018-12-05T05:54:22.822Z,21.6
2018-12-05T05:55:12.882Z,21.6
2018-12-05T05:56:02.931Z,21.6
2018-12-05T05:56:52.757Z,21.6
2018-12-05T05:57:43.344Z,21.6
2018-12-05T05:58:32.564Z,21.7
2018-12-05T05:59:23.227Z,21.7
2018-12-05T06:00:13.224Z,21.7
2018-12-05T06:01:02.809Z,21.7
2018-12-05T06:01:53.896Z,21.8
2018-12-05T06:02:43.194Z,21.8
2018-12-05T06:03:33.502Z,21.8
2018-12-05T06:04:23.775Z,21.8
2018-12-05T06:05:13.566Z,21.9
2018-12-05T06:06:03.931Z,21.9
2018-12-05T06:06:53.101Z,22
2018-12-05T06:07:43.734Z,22.1
2018-12-05T06:08:33.496Z,22.1
2018-12-05T06:09:24.111Z,22.1
2018-12-05T06:10:13.649Z,22.3
2018-12-05T06:11:03.974Z,22.3
2018-12-05T06:11:54.629Z,22.4
2018-12-05T06:12:44.636Z,22.4
2018-12-05T06:13:33.836Z,22.4
2018-12-05T06:14:24.262Z,22.5
2018-12-05T06:15:14.499Z,22.6
2018-12-05T06:16:04.598Z,22.6
2018-12-05T06:16:54.066Z,22.6
2018-12-05T06:17:44.136Z,22.6
2018-12-05T06:18:34.468Z,22.7
2018-12-05T06:19:25.138Z,22.8
2018-12-05T06:20:14.581Z,22.8
2018-12-05T06:21:04.395Z,22.8
2018-12-05T06:21:54.733Z,22.8
2018-12-05T06:22:44.733Z,22.8
2018-12-05T06:23:34.833Z,22.8
2018-12-05T06:24:24.643Z,22.9
2018-12-05T06:25:14.710Z,22.9
2018-12-05T06:26:05.016Z,22.9
2018-12-05T06:26:54.808Z,22.9
2018-12-05T06:27:44.863Z,22.9
2018-12-05T06:28:35.458Z,22.9
2018-12-05T06:29:25.737Z,22.9
2018-12-05T06:30:14.962Z,22.9
2018-12-05T06:31:05.273Z,22.9
2018-12-05T06:31:55.335Z,22.9
2018-12-05T06:32:44.844Z,22.9
2018-12-05T06:33:37.770Z,22.9
2018-12-05T06:34:26.092Z,22.9
2018-12-05T06:35:15.857Z,22.9
2018-12-05T06:36:05.642Z,23
2018-12-05T06:36:55.469Z,22.9
2018-12-05T06:37:46.002Z,23
2018-12-05T06:38:35.842Z,23
2018-12-05T06:39:25.304Z,23
2018-12-05T06:40:15.091Z,23
2018-12-05T06:41:06.572Z,23.1
2018-12-05T06:41:56.345Z,23.1
2018-12-05T06:42:46.364Z,23.1
2018-12-05T06:43:36.708Z,23.1
2018-12-05T06:44:26.481Z,23.1
2018-12-05T06:45:16.629Z,23.1
2018-12-05T06:46:05.754Z,23.1
2018-12-05T06:46:56.646Z,23.1
2018-12-05T06:47:46.686Z,23.2
2018-12-05T06:48:37.331Z,23.2
2018-12-05T06:49:26.613Z,23.2
2018-12-05T06:50:17.215Z,23.2
2018-12-05T06:51:06.715Z,23.1
2018-12-05T06:51:55.676Z,23.1
2018-12-05T06:52:46.498Z,23.1
2018-12-05T06:53:38.235Z,23.1
2018-12-05T06:54:27.208Z,23.1
2018-12-05T06:55:17.304Z,23.1
2018-12-05T06:56:07.578Z,23.2
2018-12-05T06:56:56.783Z,23.3
2018-12-05T06:57:47.113Z,23.3
2018-12-05T06:58:37.432Z,23.3
2018-12-05T06:59:27.518Z,23.3
2018-12-05T07:00:16.788Z,23.3
2018-12-05T07:01:07.368Z,23.3
2018-12-05T07:01:57.527Z,23.4
2018-12-05T07:02:47.448Z,23.3
2018-12-05T07:03:37.450Z,23.4
2018-12-05T07:04:27.570Z,23.3
2018-12-05T07:05:17.902Z,23.4
2018-12-05T07:06:07.683Z,23.4
2018-12-05T07:06:58.535Z,23.4
2018-12-05T07:07:48.105Z,23.4
2018-12-05T07:08:37.865Z,23.5
2018-12-05T07:09:26.878Z,23.5
2018-12-05T07:10:17.980Z,23.4
2018-12-05T07:11:08.055Z,23.4
2018-12-05T07:11:58.072Z,23.4
2018-12-05T07:12:48.390Z,23.5
2018-12-05T07:13:39.047Z,23.5
2018-12-05T07:14:28.312Z,23.4
2018-12-05T07:15:18.328Z,23.5
2018-12-05T07:16:08.124Z,23.4
2018-12-05T07:16:58.445Z,23.5
2018-12-05T07:17:48.267Z,23.5
2018-12-05T07:18:39.397Z,23.5
2018-12-05T07:19:29.152Z,23.6
2018-12-05T07:20:18.851Z,23.5
2018-12-05T07:21:08.997Z,23.5
2018-12-05T07:21:58.787Z,23.5
2018-12-05T07:22:48.824Z,23.5
2018-12-05T07:23:39.456Z,23.5
2018-12-05T07:24:28.434Z,23.6
2018-12-05T07:25:19.053Z,23.6
2018-12-05T07:26:08.921Z,23.6
2018-12-05T07:26:58.917Z,23.6
2018-12-05T07:27:49.138Z,23.6
2018-12-05T07:28:39.556Z,23.6
2018-12-05T07:29:29.576Z,23.6
2018-12-05T07:30:18.521Z,23.6
2018-12-05T07:31:09.146Z,23.6
2018-12-05T07:31:59.477Z,23.6
2018-12-05T07:32:49.959Z,23.6
2018-12-05T07:33:39.878Z,23.7
2018-12-05T07:34:29.973Z,23.7
2018-12-05T07:35:19.950Z,23.7
2018-12-05T07:36:08.919Z,23.7
2018-12-05T07:36:58.994Z,23.7
2018-12-05T07:37:49.326Z,23.7
2018-12-05T07:38:39.970Z,23.6
2018-12-05T07:39:30.009Z,23.6
2018-12-05T07:40:20.345Z,23.6
2018-12-05T07:41:10.356Z,23.6
2018-12-05T07:42:00.516Z,23.5
2018-12-05T07:42:50.368Z,23.5
2018-12-05T07:43:40.273Z,23.4
2018-12-05T07:44:30.868Z,23.4
2018-12-05T07:45:20.373Z,23.3
2018-12-05T07:46:10.430Z,23.3
2018-12-05T07:47:00.772Z,23.3
2018-12-05T07:47:50.625Z,23.2
2018-12-05T07:48:40.870Z,23.1
2018-12-05T07:49:31.012Z,23.1
2018-12-05T07:50:23.179Z,23.1
2018-12-05T07:51:10.787Z,23.1
2018-12-05T07:52:01.100Z,23.1
2018-12-05T07:52:50.894Z,23
2018-12-05T07:53:40.515Z,23
2018-12-05T07:54:30.472Z,22.9
2018-12-05T07:55:20.769Z,22.9
2018-12-05T07:56:11.394Z,22.9
2018-12-05T07:57:00.889Z,22.9
2018-12-05T07:57:51.215Z,22.9
2018-12-05T07:58:41.295Z,22.9
2018-12-05T07:59:31.624Z,22.9
2018-12-05T08:00:21.383Z,22.9
2018-12-05T08:01:10.924Z,22.9
2018-12-05T08:02:01.594Z,22.9
2018-12-05T08:02:51.574Z,22.8
2018-12-05T08:03:41.865Z,22.8
2018-12-05T08:04:31.460Z,22.8
2018-12-05T08:05:22.056Z,22.8
2018-12-05T08:06:12.173Z,22.8
2018-12-05T08:07:02.138Z,22.8
2018-12-05T08:07:51.914Z,22.8
2018-12-05T08:08:42.920Z,22.8
2018-12-05T08:09:32.366Z,22.8
2018-12-05T08:10:22.237Z,22.8
2018-12-05T08:11:12.098Z,22.8
2018-12-05T08:12:02.286Z,22.8
2018-12-05T08:12:51.981Z,22.8
2018-12-05T08:13:42.324Z,22.8
2018-12-05T08:14:32.118Z,22.8
2018-12-05T08:15:22.722Z,22.7
2018-12-05T08:16:12.477Z,22.7
2018-12-05T08:17:02.085Z,22.7
2018-12-05T08:17:53.165Z,22.7
2018-12-05T08:18:41.845Z,22.7
2018-12-05T08:19:33.027Z,22.7
2018-12-05T08:20:23.069Z,22.7
2018-12-05T08:21:12.905Z,22.6
2018-12-05T08:22:02.667Z,22.7
2018-12-05T08:22:53.242Z,22.6
2018-12-05T08:23:43.375Z,22.6
2018-12-05T08:24:33.329Z,22.6
2018-12-05T08:25:23.139Z,22.6
2018-12-05T08:26:13.252Z,22.6
2018-12-05T08:27:03.532Z,22.6
2018-12-05T08:27:53.386Z,22.6
2018-12-05T08:28:43.916Z,22.6
2018-12-05T08:29:33.701Z,22.6
2018-12-05T08:30:23.769Z,22.6
2018-12-05T08:31:13.891Z,22.6
2018-12-05T08:32:03.046Z,22.6
2018-12-05T08:32:53.405Z,22.6
2018-12-05T08:33:43.161Z,22.6
2018-12-05T08:34:34.324Z,22.6
2018-12-05T08:35:24.426Z,22.6
2018-12-05T08:36:13.916Z,22.6
2018-12-05T08:37:04.583Z,22.5
2018-12-05T08:37:53.446Z,22.5
2018-12-05T08:38:44.073Z,22.5
2018-12-05T08:39:34.646Z,22.5
2018-12-05T08:40:24.447Z,22.5
2018-12-05T08:41:14.527Z,22.5
2018-12-05T08:42:03.755Z,22.5
2018-12-05T08:42:54.421Z,22.5
2018-12-05T08:43:46.574Z,22.5
2018-12-05T08:44:35.007Z,22.5
2018-12-05T08:45:23.700Z,22.5
2018-12-05T08:46:15.122Z,22.5
2018-12-05T08:47:04.072Z,22.5
2018-12-05T08:47:55.248Z,22.5
2018-12-05T08:48:45.032Z,22.4
2018-12-05T08:49:34.830Z,22.4
2018-12-05T08:50:24.917Z,22.4
2018-12-05T08:51:14.900Z,22.4
2018-12-05T08:52:04.434Z,22.4
2018-12-05T08:52:55.330Z,22.4
2018-12-05T09:08:43.027Z,22.3
2018-12-05T09:09:33.159Z,22.3
2018-12-05T09:10:22.901Z,22.3
2018-12-05T09:11:12.694Z,22.3
2018-12-05T09:12:03.054Z,22.3
2018-12-05T09:12:53.343Z,22.3
2018-12-05T09:13:42.965Z,22.3
2018-12-05T09:14:35.979Z,22.3
2018-12-05T09:15:23.816Z,22.3
2018-12-05T09:16:13.591Z,22.3
2018-12-05T09:17:03.626Z,22.3
2018-12-05T09:17:53.653Z,22.3
2018-12-05T09:18:43.223Z,22.3
2018-12-05T09:19:33.251Z,22.2
2018-12-05T09:20:23.031Z,22.2
2018-12-05T09:21:14.883Z,22.2
2018-12-05T09:22:03.423Z,22.2
2018-12-05T09:22:54.584Z,22.2
2018-12-05T09:23:43.800Z,22.2
2018-12-05T09:24:33.603Z,22.2
2018-12-05T09:25:24.023Z,22.2
2018-12-05T09:26:14.538Z,22.1
2018-12-05T09:27:03.503Z,22.1
2018-12-05T09:27:54.682Z,22.2
2018-12-05T09:28:43.866Z,22.1
2018-12-05T09:29:33.742Z,22.2
2018-12-05T09:30:24.012Z,22.1
2018-12-05T09:31:14.127Z,22.1
2018-12-05T09:32:04.383Z,22.1
2018-12-05T09:32:54.517Z,22.1
2018-12-05T09:33:44.760Z,22.1
2018-12-05T09:34:34.545Z,22.1
2018-12-05T09:35:25.238Z,22.1
2018-12-05T09:36:14.693Z,22.1
2018-12-05T09:37:05.110Z,22.1
2018-12-05T09:37:55.370Z,22.1
2018-12-05T09:38:44.840Z,22.1
2018-12-05T09:39:35.460Z,22.1
2018-12-05T09:40:24.940Z,22.1
2018-12-05T09:41:14.747Z,22.1
2018-12-05T09:42:05.092Z,22.1
2018-12-05T09:42:55.402Z,22.1
2018-12-05T09:43:45.779Z,22.1
2018-12-05T09:44:35.576Z,22.1
2018-12-05T09:45:25.056Z,22.1
2018-12-05T09:46:15.667Z,22.1
2018-12-05T09:47:05.439Z,22.1
2018-12-05T09:47:54.676Z,22.1
2018-12-05T09:48:44.986Z,22
2018-12-05T09:49:35.718Z,22
2018-12-05T09:50:26.246Z,22
2018-12-05T09:51:15.701Z,22
2018-12-05T09:52:05.794Z,22
2018-12-05T09:52:56.473Z,22
2018-12-05T09:53:46.015Z,22
2018-12-05T09:54:36.268Z,22
2018-12-05T09:55:26.276Z,22
2018-12-05T09:56:15.234Z,21.9
2018-12-05T09:57:05.862Z,21.9
2018-12-05T09:57:56.171Z,21.9
2018-12-05T09:58:45.758Z,21.9
2018-12-05T09:59:35.991Z,21.9
2018-12-05T10:00:26.453Z,21.9
2018-12-05T10:01:16.415Z,21.9
2018-12-05T10:02:06.493Z,21.9
2018-12-05T10:02:56.550Z,21.9
2018-12-05T10:03:46.009Z,21.9
2018-12-05T10:04:36.648Z,21.9
2018-12-05T10:05:26.761Z,21.9
2018-12-05T10:06:16.213Z,21.9
2018-12-05T10:07:06.545Z,21.9
2018-12-05T10:07:57.382Z,21.9
2018-12-05T10:08:46.650Z,21.9
2018-12-05T10:09:37.272Z,21.9
2018-12-05T10:10:26.858Z,21.9
2018-12-05T10:11:16.570Z,21.9
2018-12-05T10:12:06.982Z,21.9
2018-12-05T10:12:57.084Z,21.9
2018-12-05T10:13:46.816Z,21.9
2018-12-05T10:14:36.827Z,21.9
2018-12-05T10:15:26.374Z,21.9
2018-12-05T10:16:16.972Z,21.9
2018-12-05T10:17:07.029Z,21.9
2018-12-05T10:17:57.382Z,21.9
2018-12-05T10:18:47.664Z,21.9
2018-12-05T10:19:38.220Z,21.9
2018-12-05T10:20:26.341Z,21.9
2018-12-05T10:21:18.080Z,21.9
2018-12-05T10:22:07.639Z,21.9
2018-12-05T10:22:57.711Z,21.9
2018-12-05T10:23:47.974Z,21.9
2018-12-05T10:24:38.021Z,21.9
2018-12-05T10:25:27.526Z,21.9
2018-12-05T10:26:17.959Z,21.8
2018-12-05T10:27:08.467Z,21.8
2018-12-05T10:27:57.958Z,21.8
2018-12-05T10:28:49.118Z,21.8
2018-12-05T10:29:38.148Z,21.8
2018-12-05T10:30:28.386Z,21.8
2018-12-05T10:31:18.791Z,21.8
2018-12-05T10:32:10.466Z,21.8
2018-12-05T10:32:58.311Z,21.8
2018-12-05T10:33:48.373Z,21.8
2018-12-05T10:34:38.775Z,21.8
2018-12-05T10:35:28.720Z,21.8
2018-12-05T10:36:18.325Z,21.8
2018-12-05T10:37:08.875Z,21.8
2018-12-05T10:38:00.441Z,21.8
2018-12-05T10:38:48.722Z,21.8
2018-12-05T10:39:39.375Z,21.8
2018-12-05T10:40:29.424Z,21.8
2018-12-05T10:41:19.022Z,21.7
2018-12-05T10:42:08.672Z,21.7
2018-12-05T10:42:58.777Z,21.7
2018-12-05T10:43:49.582Z,21.7
2018-12-05T10:44:39.732Z,21.7
2018-12-05T10:45:30.050Z,21.7
2018-12-05T10:46:19.234Z,21.7
2018-12-05T10:47:09.555Z,21.7
2018-12-05T10:47:59.349Z,21.7
2018-12-05T10:48:49.762Z,21.7
2018-12-05T10:49:39.747Z,21.7
2018-12-05T10:50:30.107Z,21.7
2018-12-05T10:51:20.447Z,21.7
2018-12-05T10:52:10.546Z,21.7
2018-12-05T10:52:59.680Z,21.7
2018-12-05T10:53:50.012Z,21.7
2018-12-05T10:54:40.744Z,21.7
2018-12-05T10:55:30.499Z,21.7
2018-12-05T10:56:19.676Z,21.7
2018-12-05T10:57:10.241Z,21.7
2018-12-05T10:58:00.654Z,21.6
2018-12-05T10:58:50.122Z,21.6
2018-12-05T10:59:39.909Z,21.6
2018-12-05T11:00:30.781Z,21.6
2018-12-05T11:01:19.974Z,21.6
2018-12-05T11:02:10.566Z,21.6
2018-12-05T11:03:01.458Z,21.6
2018-12-05T11:03:50.998Z,21.6
2018-12-05T11:04:41.335Z,21.6
2018-12-05T11:05:30.546Z,21.6
2018-12-05T11:06:21.136Z,21.6
2018-12-05T11:07:10.663Z,21.6
2018-12-05T11:08:01.510Z,21.6
2018-12-05T11:08:51.057Z,21.6
2018-12-05T11:09:41.465Z,21.6
2018-12-05T11:10:30.593Z,21.6
2018-12-05T11:11:20.995Z,21.5
2018-12-05T11:12:10.997Z,21.6
2018-12-05T11:13:01.047Z,21.5
2018-12-05T11:13:52.010Z,21.5
2018-12-05T11:14:41.719Z,21.5
2018-12-05T11:15:32.072Z,21.5
2018-12-05T11:16:22.077Z,21.5
2018-12-05T11:17:11.894Z,21.5
2018-12-05T11:18:01.972Z,21.5
2018-12-05T11:18:51.729Z,21.5
2018-12-05T11:19:41.529Z,21.5
2018-12-05T11:20:31.934Z,21.5
2018-12-05T11:21:22.421Z,21.5
2018-12-05T11:22:12.575Z,21.5
2018-12-05T11:23:02.579Z,21.4
2018-12-05T11:23:53.773Z,21.4
2018-12-05T11:24:42.647Z,21.4
2018-12-05T11:25:31.441Z,21.4
2018-12-05T11:26:22.039Z,21.4
2018-12-05T11:27:11.841Z,21.4
2018-12-05T11:28:02.202Z,21.4
2018-12-05T11:28:51.946Z,21.4
2018-12-05T11:29:42.627Z,21.4
2018-12-05T11:30:32.396Z,21.4
2018-12-05T11:31:21.551Z,21.4
2018-12-05T11:32:12.383Z,21.4
2018-12-05T11:33:02.463Z,21.4
2018-12-05T11:33:52.769Z,21.4
2018-12-05T11:34:41.424Z,21.4
2018-12-05T11:35:32.832Z,21.4
2018-12-05T11:36:23.017Z,21.4
2018-12-05T11:37:13.260Z,21.4
2018-12-05T11:38:03.314Z,21.4
2018-12-05T11:38:53.654Z,21.4
2018-12-05T11:39:42.643Z,21.4
2018-12-05T11:40:33.234Z,21.4
2018-12-05T11:41:23.258Z,21.4
2018-12-05T11:42:13.436Z,21.3
2018-12-05T11:43:02.967Z,21.4
2018-12-05T11:43:53.726Z,21.3
2018-12-05T11:44:43.859Z,21.4
2018-12-05T11:45:33.836Z,21.3
2018-12-05T11:46:23.079Z,21.3
2018-12-05T11:47:13.284Z,21.3
2018-12-05T11:48:03.429Z,21.3
2018-12-05T11:48:53.229Z,21.3
2018-12-05T11:49:43.386Z,21.3
2018-12-05T11:50:33.065Z,21.3
2018-12-05T11:51:23.064Z,21.3
2018-12-05T11:52:13.878Z,21.3
2018-12-05T11:53:03.665Z,21.3
2018-12-05T11:53:54.444Z,21.3
2018-12-05T11:54:44.066Z,21.3
2018-12-05T11:55:34.474Z,21.3
2018-12-05T11:56:24.109Z,21.3